Time;durP1;ratioP1;P1;durP2;ratioP2;P2;SDS_P1;SDS_P2;PMS_P1;PMS_P2;Temp;Humidity;BMP_temperature;BMP_pressure;BME280_temperature;BME280_humidity;BME280_pressure;Samples;Min_cycle;Max_cycle;Signal;HPM_P1;HPM_P2
2022/03/16 00:02:02;;;;;;;0.30;0.20;;;;;;;4.91;100.00;101080.38;5004537;28;20572;-48
2022/03/16 00:04:29;;;;;;;0.20;0.10;;;;;;;4.91;100.00;101083.00;5013634;28;20536;-48
2022/03/16 00:06:56;;;;;;;0.20;0.10;;;;;;;4.99;100.00;101082.19;5015058;28;20448;-49
2022/03/16 00:09:22;;;;;;;0.20;0.10;;;;;;;4.95;100.00;101079.53;5009439;28;20488;-47
2022/03/16 00:11:49;;;;;;;0.30;0.20;;;;;;;4.97;100.00;101069.88;5015023;28;20930;-49
2022/03/16 00:14:16;;;;;;;0.30;0.20;;;;;;;5.11;100.00;101080.53;5013897;28;20459;-48
2022/03/16 00:16:43;;;;;;;0.30;0.30;;;;;;;5.17;100.00;101080.53;5012607;28;20801;-48
2022/03/16 00:19:09;;;;;;;0.20;0.10;;;;;;;5.25;100.00;101073.56;5013281;28;20574;-48
2022/03/16 00:21:36;;;;;;;0.20;0.10;;;;;;;5.27;100.00;101069.19;5015182;28;20518;-48
2022/03/16 00:24:03;;;;;;;0.30;0.20;;;;;;;5.29;100.00;101068.31;5013844;28;20457;-48
2022/03/16 00:26:34;;;;;;;0.57;0.57;;;;;;;5.11;100.00;101068.22;5014690;28;20528;-49
2022/03/16 00:29:00;;;;;;;0.20;0.10;;;;;;;5.20;100.00;101070.88;5014735;28;20460;-49
2022/03/16 00:31:27;;;;;;;0.20;0.20;;;;;;;5.23;100.00;101070.94;5014934;28;20452;-48
2022/03/16 00:33:54;;;;;;;0.20;0.20;;;;;;;5.25;100.00;101070.94;5014483;28;21023;-48
2022/03/16 00:36:21;;;;;;;0.20;0.20;;;;;;;5.37;100.00;101071.00;5014719;28;20507;-49
2022/03/16 00:38:49;;;;;;;0.20;0.10;;;;;;;5.24;100.00;101075.34;5014300;28;20653;-48
2022/03/16 00:41:16;;;;;;;0.37;0.37;;;;;;;5.23;100.00;101075.31;5014467;28;20452;-48
2022/03/16 00:43:43;;;;;;;0.20;0.10;;;;;;;5.21;100.00;101077.97;5014611;28;20456;-49
2022/03/16 00:46:10;;;;;;;0.20;0.10;;;;;;;4.92;100.00;101079.50;5014252;28;20880;-49
2022/03/16 00:48:37;;;;;;;0.20;0.10;;;;;;;5.15;100.00;101084.94;5003680;28;20526;-49
2022/03/16 00:51:04;;;;;;;0.20;0.10;;;;;;;5.04;100.00;101080.47;5014221;28;20473;-48
2022/03/16 00:53:33;;;;;;;0.20;0.10;;;;;;;4.98;100.00;101077.81;5014170;28;20504;-48
2022/03/16 00:56:01;;;;;;;0.20;0.20;;;;;;;4.87;100.00;101084.75;5013962;28;20452;-48
2022/03/16 00:58:28;;;;;;;0.20;0.20;;;;;;;4.97;100.00;101094.47;5014407;28;20549;-48
2022/03/16 01:00:55;;;;;;;0.40;0.40;;;;;;;4.96;100.00;101087.44;5011863;28;20566;-48
2022/03/16 01:03:22;;;;;;;0.20;0.10;;;;;;;4.84;100.00;101089.09;5003213;28;20453;-48
2022/03/16 01:05:49;;;;;;;0.20;0.10;;;;;;;4.69;100.00;101090.75;5013982;28;20881;-48
2022/03/16 01:08:16;;;;;;;0.20;0.10;;;;;;;4.60;100.00;101084.53;5012891;28;21005;-48
2022/03/16 01:10:42;;;;;;;0.20;0.10;;;;;;;4.53;100.00;101083.59;5010199;28;20516;-46
2022/03/16 01:13:09;;;;;;;0.20;0.10;;;;;;;4.73;100.00;101071.47;5013955;28;20515;-46
2022/03/16 01:15:36;;;;;;;0.20;0.20;;;;;;;4.74;100.00;101082.88;5013800;28;20942;-46
2022/03/16 01:18:03;;;;;;;0.20;0.20;;;;;;;4.70;100.00;101091.63;5010095;28;20551;-46
2022/03/16 01:20:30;;;;;;;0.53;0.50;;;;;;;4.87;100.00;101078.59;5013828;28;20469;-46
2022/03/16 01:22:56;;;;;;;0.83;0.73;;;;;;;4.72;100.00;101087.25;5013688;28;20511;-46
2022/03/16 01:25:23;;;;;;;5.93;2.40;;;;;;;4.64;100.00;101092.44;5013607;28;20942;-46
2022/03/16 01:27:50;;;;;;;0.77;0.77;;;;;;;4.52;100.00;101087.06;5012599;28;20453;-46
2022/03/16 01:30:17;;;;;;;0.20;0.20;;;;;;;4.61;100.00;101094.19;5013460;28;20523;-46
2022/03/16 01:32:44;;;;;;;0.40;0.40;;;;;;;4.56;100.00;101085.38;5013628;28;20476;-45
2022/03/16 01:35:11;;;;;;;0.20;0.10;;;;;;;4.58;100.00;101086.25;5013396;28;20452;-46
2022/03/16 01:37:38;;;;;;;0.20;0.10;;;;;;;4.48;100.00;101095.81;5013380;28;20519;-46
2022/03/16 01:40:06;;;;;;;0.20;0.10;;;;;;;4.41;100.00;101089.63;5013239;28;20484;-46
2022/03/16 01:42:33;;;;;;;0.40;0.40;;;;;;;4.33;100.00;101090.41;5013656;28;20812;-46
2022/03/16 01:45:00;;;;;;;0.30;0.20;;;;;;;4.33;100.00;101095.69;5014590;28;20480;-46
2022/03/16 01:47:27;;;;;;;0.50;0.50;;;;;;;4.27;100.00;101091.25;5005013;28;20496;-47
2022/03/16 01:49:55;;;;;;;0.20;0.10;;;;;;;4.33;100.00;101096.56;5009772;28;20472;-47
2022/03/16 01:52:24;;;;;;;0.30;0.20;;;;;;;4.44;100.00;101097.53;5013253;28;20491;-46
2022/03/16 01:54:51;;;;;;;0.20;0.10;;;;;;;3.97;100.00;101094.41;5013226;28;20452;-46
2022/03/16 01:57:19;;;;;;;0.50;0.50;;;;;;;4.14;100.00;101099.88;5013830;28;20487;-46
2022/03/16 01:59:46;;;;;;;0.20;0.10;;;;;;;4.05;100.00;101105.91;5012824;28;20969;-47
2022/03/16 02:02:13;;;;;;;0.20;0.10;;;;;;;4.18;100.00;101104.31;5000582;28;20449;-47
2022/03/16 02:04:41;;;;;;;0.20;0.10;;;;;;;4.28;100.00;101115.81;5012479;28;20453;-47
2022/03/16 02:07:08;;;;;;;0.20;0.20;;;;;;;4.20;100.00;101114.84;5013135;28;20495;-46
2022/03/16 02:09:35;;;;;;;0.20;0.10;;;;;;;4.26;100.00;101110.53;5001300;28;20528;-46
2022/03/16 02:12:02;;;;;;;0.20;0.20;;;;;;;4.57;100.00;101114.34;5006474;28;20456;-46
2022/03/16 02:14:29;;;;;;;0.20;0.10;;;;;;;4.35;100.00;101112.34;4987047;28;20867;-46
2022/03/16 02:16:58;;;;;;;0.30;0.30;;;;;;;4.08;100.00;101108.56;5008827;28;20508;-47
2022/03/16 02:19:25;;;;;;;0.20;0.20;;;;;;;3.97;100.00;101112.81;5013162;28;20504;-47
2022/03/16 02:21:57;;;;;;;0.20;0.10;;;;;;;4.17;100.00;101110.44;5012697;28;20965;-47
2022/03/16 02:24:25;;;;;;;0.20;0.10;;;;;;;4.05;100.00;101115.56;5012883;28;20455;-47
2022/03/16 02:26:52;;;;;;;0.30;0.20;;;;;;;4.22;100.00;101111.34;5012548;28;20460;-47
2022/03/16 02:29:19;;;;;;;0.20;0.10;;;;;;;4.19;100.00;101107.81;5012521;28;20512;-47
2022/03/16 02:31:46;;;;;;;0.20;0.10;;;;;;;4.30;100.00;101107.06;5012336;28;20491;-47
2022/03/16 02:34:12;;;;;;;0.87;0.87;;;;;;;4.36;100.00;101111.50;5012511;28;20555;-47
2022/03/16 02:36:39;;;;;;;0.30;0.20;;;;;;;4.52;100.00;101100.22;5012574;28;20511;-47
2022/03/16 02:39:06;;;;;;;0.20;0.10;;;;;;;4.60;100.00;101108.22;5012458;28;20497;-47
2022/03/16 02:41:32;;;;;;;0.20;0.10;;;;;;;4.34;100.00;101110.59;5012286;28;20503;-47
2022/03/16 02:43:59;;;;;;;0.20;0.10;;;;;;;4.35;100.00;101112.34;5012356;28;20884;-47
2022/03/16 02:46:26;;;;;;;0.20;0.10;;;;;;;4.48;100.00;101114.25;5012073;28;20506;-46
2022/03/16 02:48:52;;;;;;;0.20;0.10;;;;;;;4.42;100.00;101109.81;4991014;28;20445;-47
2022/03/16 02:51:19;;;;;;;1.70;0.47;;;;;;;4.41;100.00;101118.59;5012268;28;20492;-47
2022/03/16 02:53:46;;;;;;;0.20;0.10;;;;;;;4.73;100.00;101123.25;5012484;28;20487;-47
2022/03/16 02:56:12;;;;;;;1.13;1.13;;;;;;;4.81;100.00;101124.22;5012160;28;21151;-48
2022/03/16 02:58:39;;;;;;;0.30;0.20;;;;;;;4.69;100.00;101121.47;5012186;28;20574;-46
2022/03/16 03:01:10;;;;;;;0.20;0.10;;;;;;;4.67;100.00;101134.63;5008545;28;20445;-47
2022/03/16 03:03:37;;;;;;;0.53;0.53;;;;;;;4.83;100.00;101124.22;5003442;28;20471;-47
2022/03/16 03:06:03;;;;;;;1.07;1.07;;;;;;;5.07;100.00;101121.75;5012036;28;20491;-46
2022/03/16 03:08:30;;;;;;;0.20;0.10;;;;;;;4.94;100.00;101131.34;5009364;28;20477;-47
2022/03/16 03:10:57;;;;;;;0.20;0.10;;;;;;;4.79;100.00;101131.19;5009781;28;20996;-47
2022/03/16 03:13:24;;;;;;;0.20;0.10;;;;;;;4.93;100.00;101124.28;5012100;28;20453;-46
2022/03/16 03:15:50;;;;;;;0.20;0.10;;;;;;;4.98;100.00;101122.59;5011993;28;20880;-47
2022/03/16 03:18:17;;;;;;;0.63;0.63;;;;;;;4.96;100.00;101119.06;5008219;28;20493;-46
2022/03/16 03:20:44;;;;;;;0.20;0.10;;;;;;;4.98;100.00;101119.94;5011986;28;20473;-47
2022/03/16 03:23:11;;;;;;;0.20;0.20;;;;;;;5.08;100.00;101120.03;5012143;28;21003;-47
2022/03/16 03:25:37;;;;;;;0.20;0.10;;;;;;;5.15;100.00;101125.34;5011827;28;20942;-47
2022/03/16 03:28:04;;;;;;;0.20;0.17;;;;;;;5.27;100.00;101122.78;5012262;28;20449;-47
2022/03/16 03:30:30;;;;;;;0.50;0.50;;;;;;;5.33;100.00;101129.84;5011776;28;20978;-47
2022/03/16 03:32:57;;;;;;;0.20;0.10;;;;;;;5.31;100.00;101124.56;5011864;28;20453;-47
2022/03/16 03:35:24;;;;;;;0.30;0.30;;;;;;;5.31;100.00;101119.28;5011972;28;20480;-46
2022/03/16 03:37:52;;;;;;;0.30;0.20;;;;;;;5.28;100.00;101121.03;5012012;28;20453;-47
2022/03/16 03:40:18;;;;;;;0.60;0.57;;;;;;;5.37;100.00;101125.50;5011641;28;20504;-47
2022/03/16 03:42:45;;;;;;;0.20;0.10;;;;;;;5.32;100.00;101126.31;5011918;28;20457;-47
2022/03/16 03:45:11;;;;;;;0.20;0.10;;;;;;;5.32;100.00;101128.94;5011698;28;20491;-47
2022/03/16 03:47:38;;;;;;;0.20;0.10;;;;;;;5.32;100.00;101128.06;5002248;28;20453;-47
2022/03/16 03:50:05;;;;;;;0.20;0.10;;;;;;;5.31;100.00;101126.31;5011326;28;20464;-47
2022/03/16 03:52:31;;;;;;;0.73;0.73;;;;;;;5.41;100.00;101130.78;5012214;28;20831;-47
2022/03/16 03:54:58;;;;;;;0.40;0.40;;;;;;;5.31;100.00;101135.09;5011639;28;20453;-47
2022/03/16 03:57:25;;;;;;;0.20;0.20;;;;;;;5.41;100.00;101130.78;5011690;28;21016;-47
2022/03/16 03:59:51;;;;;;;0.20;0.10;;;;;;;5.45;100.00;101137.81;5013787;28;21083;-47
2022/03/16 04:02:18;;;;;;;0.37;0.37;;;;;;;5.36;100.00;101132.53;5002082;28;20509;-47
2022/03/16 04:04:45;;;;;;;0.20;0.10;;;;;;;5.43;100.00;101136.06;5015232;28;20444;-47
2022/03/16 04:07:11;;;;;;;0.20;0.10;;;;;;;5.28;100.00;101140.34;5015070;28;20452;-47
2022/03/16 04:09:38;;;;;;;0.90;0.87;;;;;;;5.27;100.00;101146.50;5010004;28;20558;-46
2022/03/16 04:12:05;;;;;;;0.20;0.10;;;;;;;5.30;100.00;101151.78;5015247;28;20476;-47
2022/03/16 04:14:31;;;;;;;0.30;0.20;;;;;;;5.33;100.00;101148.28;5015268;28;20825;-47
2022/03/16 04:16:59;;;;;;;3.03;2.73;;;;;;;5.30;100.00;101157.06;5010968;28;20457;-47
2022/03/16 04:19:26;;;;;;;0.60;0.57;;;;;;;5.46;100.00;101149.25;5015277;28;20550;-47
2022/03/16 04:21:52;;;;;;;0.20;0.10;;;;;;;5.46;100.00;101160.69;5014033;28;20452;-46
2022/03/16 04:24:19;;;;;;;0.80;0.80;;;;;;;5.42;100.00;101158.03;5015258;28;20491;-47
2022/03/16 04:26:45;;;;;;;0.20;0.10;;;;;;;5.44;100.00;101153.63;5015144;28;20488;-46
2022/03/16 04:29:12;;;;;;;0.20;0.10;;;;;;;5.52;100.00;101158.09;5014922;28;20460;-47
2022/03/16 04:31:39;;;;;;;0.20;0.20;;;;;;;5.54;100.00;101158.09;5013498;28;20515;-47
2022/03/16 04:34:05;;;;;;;0.30;0.20;;;;;;;5.57;100.00;101153.72;5015136;28;20460;-47
2022/03/16 04:36:32;;;;;;;0.20;0.20;;;;;;;5.59;100.00;101151.09;5014383;28;20953;-47
2022/03/16 04:38:59;;;;;;;0.30;0.20;;;;;;;5.63;100.00;101152.88;5014681;28;20488;-47
2022/03/16 04:41:25;;;;;;;0.20;0.10;;;;;;;5.62;100.00;101149.38;5015160;28;20877;-47
2022/03/16 04:43:52;;;;;;;0.20;0.13;;;;;;;5.57;100.00;101153.72;5014882;28;20452;-47
2022/03/16 04:46:18;;;;;;;0.20;0.20;;;;;;;5.50;100.00;101151.94;5014683;28;20511;-47
2022/03/16 04:48:45;;;;;;;1.80;1.80;;;;;;;5.89;100.00;101150.34;5003569;28;20453;-47
2022/03/16 04:51:12;;;;;;;0.20;0.10;;;;;;;5.76;100.00;101153.84;5014157;28;20871;-47
2022/03/16 04:53:39;;;;;;;0.53;0.53;;;;;;;5.61;100.00;101154.59;5014436;28;20461;-47
2022/03/16 04:56:05;;;;;;;0.30;0.20;;;;;;;5.72;100.00;101152.03;5014091;28;20950;-47
2022/03/16 04:58:32;;;;;;;1.27;1.27;;;;;;;5.61;100.00;101152.84;5014116;28;20489;-47
2022/03/16 05:00:59;;;;;;;1.63;1.63;;;;;;;5.56;100.00;101151.06;5011567;28;21020;-47
2022/03/16 05:03:26;;;;;;;0.20;0.10;;;;;;;5.79;100.00;101164.41;5003707;28;20448;-47
2022/03/16 05:05:53;;;;;;;0.20;0.10;;;;;;;5.82;100.00;101165.28;5013791;28;20548;-47
2022/03/16 05:08:20;;;;;;;0.20;0.20;;;;;;;5.74;100.00;101158.19;5012765;28;20522;-46
2022/03/16 05:10:46;;;;;;;0.20;0.10;;;;;;;5.89;100.00;101161.81;5009405;28;20477;-46
2022/03/16 05:13:13;;;;;;;0.20;0.10;;;;;;;5.54;100.00;101161.63;5014168;28;20510;-46
2022/03/16 05:15:39;;;;;;;0.50;0.50;;;;;;;5.49;100.00;101160.72;5013960;28;20954;-47
2022/03/16 05:18:06;;;;;;;0.30;0.20;;;;;;;5.41;100.00;101166.81;5009389;28;20830;-46
2022/03/16 05:20:33;;;;;;;0.20;0.20;;;;;;;5.25;100.00;101157.91;5013849;28;20595;-46
2022/03/16 05:22:59;;;;;;;0.30;0.27;;;;;;;5.49;100.00;101160.72;5014030;28;20448;-47
2022/03/16 05:25:30;;;;;;;0.20;0.13;;;;;;;5.63;100.00;101164.31;5013798;28;20453;-46
2022/03/16 05:27:57;;;;;;;0.20;0.10;;;;;;;5.70;100.00;101169.63;5014151;28;20946;-46
2022/03/16 05:30:26;;;;;;;0.20;0.10;;;;;;;5.65;100.00;101173.13;5013883;28;20497;-47
2022/03/16 05:32:56;;;;;;;0.53;0.53;;;;;;;5.81;100.00;101168.78;5013368;28;20449;-47
2022/03/16 05:35:23;;;;;;;0.20;0.13;;;;;;;5.65;100.00;101175.75;5013653;28;20441;-47
2022/03/16 05:37:49;;;;;;;0.30;0.27;;;;;;;5.48;100.00;101171.22;5013714;28;20479;-47
2022/03/16 05:40:16;;;;;;;0.20;0.10;;;;;;;5.41;100.00;101177.34;5013434;28;20500;-47
2022/03/16 05:42:43;;;;;;;1.90;1.70;;;;;;;5.24;100.00;101171.97;5013459;28;20544;-47
2022/03/16 05:45:10;;;;;;;0.30;0.30;;;;;;;5.21;100.00;101170.19;5013237;28;21007;-47
2022/03/16 05:47:37;;;;;;;0.30;0.20;;;;;;;5.20;100.00;101173.66;5003812;28;20485;-47
2022/03/16 05:50:06;;;;;;;0.20;0.10;;;;;;;5.14;100.00;101157.84;5012133;28;20526;-47
2022/03/16 05:52:35;;;;;;;0.20;0.20;;;;;;;5.09;100.00;101170.09;5013579;28;20465;-47
2022/03/16 05:55:02;;;;;;;0.57;0.57;;;;;;;4.96;100.00;101161.22;5013106;28;20452;-46
2022/03/16 05:57:29;;;;;;;0.30;0.30;;;;;;;4.87;100.00;101160.25;5013224;28;20456;-47
2022/03/16 05:59:55;;;;;;;0.20;0.10;;;;;;;4.88;100.00;101162.00;5012973;28;20523;-47
2022/03/16 06:02:22;;;;;;;0.20;0.10;;;;;;;4.84;100.00;101162.84;4999859;28;20447;-47
2022/03/16 06:04:49;;;;;;;0.20;0.10;;;;;;;5.23;100.00;101171.09;5013212;28;20479;-47
2022/03/16 06:07:15;;;;;;;0.20;0.10;;;;;;;5.23;100.00;101175.47;5013412;28;20457;-47
2022/03/16 06:09:44;;;;;;;0.20;0.10;;;;;;;4.97;100.00;101180.53;5007682;28;20503;-47
2022/03/16 06:12:11;;;;;;;0.20;0.13;;;;;;;5.09;100.00;101174.50;5012880;28;20479;-47
2022/03/16 06:14:37;;;;;;;0.60;0.60;;;;;;;5.21;100.00;101172.84;5013290;28;20504;-47
2022/03/16 06:17:04;;;;;;;0.30;0.30;;;;;;;5.14;100.00;101178.03;5009502;28;20824;-46
2022/03/16 06:19:31;;;;;;;0.20;0.20;;;;;;;5.25;100.00;101181.63;5012910;28;20502;-47
2022/03/16 06:21:58;;;;;;;0.20;0.10;;;;;;;5.18;100.00;101185.97;5012176;28;20480;-47
2022/03/16 06:24:24;;;;;;;1.33;1.33;;;;;;;5.25;100.00;101185.16;5012864;28;20507;-47
2022/03/16 06:26:51;;;;;;;0.20;0.10;;;;;;;5.43;100.00;101184.38;5012510;28;20945;-47
2022/03/16 06:29:18;;;;;;;0.30;0.30;;;;;;;5.35;100.00;101194.03;5012615;28;20469;-47
2022/03/16 06:31:44;;;;;;;0.20;0.10;;;;;;;5.19;100.00;101182.44;5012547;28;20475;-47
2022/03/16 06:34:11;;;;;;;2.60;1.13;;;;;;;5.14;100.00;101189.44;5012822;28;20456;-47
2022/03/16 06:36:38;;;;;;;0.20;0.10;;;;;;;5.23;100.00;101193.94;5012603;28;20510;-46
2022/03/16 06:39:04;;;;;;;0.20;0.10;;;;;;;5.58;100.00;101189.75;5012468;28;20871;-46
2022/03/16 06:41:31;;;;;;;0.20;0.10;;;;;;;5.50;100.00;101188.84;5012165;28;20985;-47
2022/03/16 06:43:58;;;;;;;0.30;0.20;;;;;;;5.10;100.00;101192.94;5012763;28;20511;-47
2022/03/16 06:46:24;;;;;;;0.20;0.10;;;;;;;4.96;100.00;101202.47;5012536;28;20456;-46
2022/03/16 06:48:51;;;;;;;0.30;0.20;;;;;;;4.93;100.00;101198.03;4991108;28;20462;-46
2022/03/16 06:51:17;;;;;;;0.20;0.10;;;;;;;4.92;100.00;101191.00;5012486;28;20452;-47
2022/03/16 06:53:44;;;;;;;0.20;0.10;;;;;;;4.97;100.00;101194.59;5012391;28;20452;-46
2022/03/16 06:56:10;;;;;;;0.20;0.20;;;;;;;5.16;100.00;101200.00;5012212;28;20449;-47
2022/03/16 06:58:37;;;;;;;0.20;0.10;;;;;;;5.23;100.00;101204.47;5012617;28;20828;-47
2022/03/16 07:01:04;;;;;;;0.63;0.63;;;;;;;5.00;100.00;101207.78;5008952;28;20469;-47
2022/03/16 07:03:31;;;;;;;0.40;0.40;;;;;;;5.08;100.00;101212.25;5002549;28;20884;-47
2022/03/16 07:05:57;;;;;;;0.30;0.20;;;;;;;5.22;100.00;101214.13;5012380;28;20480;-47
2022/03/16 07:08:24;;;;;;;0.20;0.10;;;;;;;4.99;100.00;101210.41;5010310;28;20448;-47
2022/03/16 07:10:50;;;;;;;0.20;0.13;;;;;;;5.01;100.00;101201.63;5009490;28;20476;-47
2022/03/16 07:13:17;;;;;;;0.30;0.20;;;;;;;5.10;100.00;101207.88;5012485;28;20514;-47
2022/03/16 07:15:44;;;;;;;0.20;0.20;;;;;;;5.15;100.00;101208.78;5012268;28;20503;-47
2022/03/16 07:18:12;;;;;;;0.30;0.30;;;;;;;4.79;100.00;101207.56;5008516;28;20448;-47
2022/03/16 07:20:39;;;;;;;0.20;0.10;;;;;;;5.00;100.00;101206.91;5012066;28;20842;-46
2022/03/16 07:23:09;;;;;;;0.20;0.10;;;;;;;4.84;100.00;101208.50;5012134;28;20452;-46
2022/03/16 07:25:57;;;;;;;0.20;0.10;;;;;;;4.85;100.00;101210.28;5012430;28;20457;-46
2022/03/16 07:28:24;;;;;;;0.60;0.60;;;;;;;4.91;100.00;101226.13;5012201;28;20495;-47
2022/03/16 07:30:50;;;;;;;0.20;0.10;;;;;;;4.90;100.00;101226.13;5012230;28;20472;-47
2022/03/16 07:33:18;;;;;;;0.20;0.10;;;;;;;4.83;100.00;101233.09;5012436;28;20456;-47
2022/03/16 07:35:46;;;;;;;0.30;0.23;;;;;;;4.89;100.00;101229.63;5015849;28;20847;-46
2022/03/16 07:38:13;;;;;;;0.30;0.20;;;;;;;5.05;100.00;101228.88;5014549;28;20455;-47
2022/03/16 07:40:40;;;;;;;0.20;0.17;;;;;;;5.04;100.00;101229.75;5015767;28;20516;-47
2022/03/16 07:43:07;;;;;;;0.20;0.10;;;;;;;4.98;100.00;101235.88;5015699;28;20510;-47
2022/03/16 07:45:34;;;;;;;1.23;1.23;;;;;;;4.92;100.00;101235.78;5015724;28;20872;-47
2022/03/16 07:48:02;;;;;;;0.20;0.10;;;;;;;4.95;100.00;101242.88;5004307;28;20449;-47
2022/03/16 07:50:29;;;;;;;2.67;1.07;;;;;;;5.05;100.00;101250.84;5015423;28;20472;-47
2022/03/16 07:52:56;;;;;;;0.87;0.87;;;;;;;5.03;100.00;101254.34;5015732;28;20452;-47
2022/03/16 07:55:22;;;;;;;0.20;0.10;;;;;;;5.10;100.00;101250.03;5015740;28;20512;-47
2022/03/16 07:57:49;;;;;;;0.20;0.20;;;;;;;5.07;100.00;101250.84;5015485;28;20457;-47
2022/03/16 08:00:16;;;;;;;0.27;0.20;;;;;;;5.11;100.00;101249.16;5014166;28;20489;-48
2022/03/16 08:02:44;;;;;;;0.20;0.10;;;;;;;5.18;100.00;101246.56;5002174;28;20453;-48
2022/03/16 08:05:12;;;;;;;0.97;0.97;;;;;;;5.16;100.00;101245.69;5014992;28;20461;-48
2022/03/16 08:07:39;;;;;;;0.20;0.20;;;;;;;4.99;100.00;101253.44;5014974;28;20602;-47
2022/03/16 08:10:06;;;;;;;0.20;0.10;;;;;;;5.08;100.00;101242.13;5010073;28;20488;-47
2022/03/16 08:12:33;;;;;;;0.20;0.10;;;;;;;5.12;100.00;101251.81;5015064;28;20778;-48
2022/03/16 08:15:00;;;;;;;0.20;0.10;;;;;;;5.20;100.00;101246.59;5015240;28;20494;-48
2022/03/16 08:17:27;;;;;;;0.20;0.10;;;;;;;5.07;100.00;101248.22;5011362;28;20456;-48
2022/03/16 08:19:53;;;;;;;0.20;0.10;;;;;;;5.22;100.00;101245.75;5015055;28;20496;-48
2022/03/16 08:22:25;;;;;;;0.20;0.10;;;;;;;5.23;100.00;101247.50;5015004;28;20507;-47
2022/03/16 08:24:51;;;;;;;0.20;0.10;;;;;;;5.23;100.00;101246.63;5015097;28;20453;-48
2022/03/16 08:27:19;;;;;;;1.33;1.23;;;;;;;5.12;100.00;101249.16;5014701;28;20849;-47
2022/03/16 08:29:46;;;;;;;0.20;0.10;;;;;;;5.37;100.00;101250.25;5014684;28;20519;-48
2022/03/16 08:32:13;;;;;;;0.20;0.10;;;;;;;5.21;100.00;101253.66;5014914;28;20449;-48
2022/03/16 08:34:40;;;;;;;0.20;0.10;;;;;;;5.25;100.00;101252.78;5014949;28;20452;-47
2022/03/16 08:37:07;;;;;;;0.20;0.10;;;;;;;5.36;100.00;101243.22;5014722;28;20478;-47
2022/03/16 08:39:41;;;;;;;0.20;0.10;;;;;;;5.35;100.00;101247.63;5014554;28;20488;-48
2022/03/16 08:42:10;;;;;;;0.20;0.10;;;;;;;5.38;100.00;101244.13;4988988;28;20457;-47
2022/03/16 08:44:37;;;;;;;0.20;0.10;;;;;;;5.29;100.00;101236.13;5013655;28;20535;-46
2022/03/16 08:47:04;;;;;;;0.20;0.20;;;;;;;5.54;100.00;101237.22;5009505;28;20488;-47
2022/03/16 08:49:31;;;;;;;0.20;0.20;;;;;;;5.63;100.00;101238.16;5008402;28;21043;-48
2022/03/16 08:51:58;;;;;;;0.20;0.10;;;;;;;5.57;100.00;101227.56;5014329;28;20448;-48
2022/03/16 08:54:25;;;;;;;0.20;0.10;;;;;;;5.95;100.00;101237.50;5014256;28;20453;-48
2022/03/16 08:56:53;;;;;;;0.53;0.53;;;;;;;5.87;100.00;101233.88;5014335;28;20456;-47
2022/03/16 08:59:20;;;;;;;0.63;0.63;;;;;;;5.90;100.00;101241.88;5014482;28;20473;-49
2022/03/16 09:01:47;;;;;;;0.53;0.53;;;;;;;5.91;100.00;101249.81;5005255;28;20481;-47
2022/03/16 09:04:14;;;;;;;0.40;0.40;;;;;;;6.06;100.00;101241.09;5010413;28;20449;-48
2022/03/16 09:06:41;;;;;;;0.20;0.20;;;;;;;6.04;100.00;101237.56;5014181;28;20945;-47
2022/03/16 09:09:08;;;;;;;0.20;0.10;;;;;;;6.02;100.00;101235.75;5008976;28;20504;-48
2022/03/16 09:11:35;;;;;;;0.30;0.20;;;;;;;5.94;100.00;101233.09;5014047;28;20449;-48
2022/03/16 09:14:02;;;;;;;0.40;0.40;;;;;;;5.86;100.00;101229.50;5014160;28;20460;-48
2022/03/16 09:16:29;;;;;;;1.83;1.70;;;;;;;5.67;100.00;101225.88;5013728;28;20448;-48
2022/03/16 09:18:56;;;;;;;0.20;0.10;;;;;;;5.94;100.00;101217.28;5011204;28;20453;-47
2022/03/16 09:21:25;;;;;;;0.30;0.20;;;;;;;6.00;100.00;101222.56;5014109;28;20601;-48
2022/03/16 09:23:53;;;;;;;0.20;0.20;;;;;;;6.04;100.00;101216.44;5013903;28;20480;-48
2022/03/16 09:26:23;;;;;;;0.20;0.10;;;;;;;5.99;100.00;101231.34;5013776;28;20934;-47
2022/03/16 09:28:50;;;;;;;0.30;0.20;;;;;;;6.01;100.00;101224.31;5013490;28;20453;-47
2022/03/16 09:31:17;;;;;;;0.20;0.10;;;;;;;6.08;100.00;101220.84;5014065;28;20568;-47
2022/03/16 09:33:44;;;;;;;0.20;0.20;;;;;;;6.12;100.00;101216.47;5013612;28;20449;-47
2022/03/16 09:36:10;;;;;;;0.20;0.20;;;;;;;6.23;100.00;101215.66;5014451;28;20606;-49
2022/03/16 09:38:37;;;;;;;0.20;0.20;;;;;;;6.02;100.00;101204.97;5013463;28;20883;-47
2022/03/16 09:41:04;;;;;;;0.20;0.10;;;;;;;6.04;100.00;101203.25;5013635;28;20910;-47
2022/03/16 09:43:33;;;;;;;0.30;0.20;;;;;;;6.25;100.00;101199.81;5013985;28;20456;-47
2022/03/16 09:46:15;;;;;;;0.87;0.87;;;;;;;6.38;100.00;101208.66;5013695;28;20449;-47
2022/03/16 09:48:42;;;;;;;0.20;0.10;;;;;;;6.60;100.00;101218.41;5000449;28;20456;-49
2022/03/16 09:51:10;;;;;;;1.90;0.93;;;;;;;6.67;100.00;101206.09;5013211;28;20993;-48
2022/03/16 09:53:37;;;;;;;0.20;0.20;;;;;;;6.83;100.00;101213.16;5013578;28;20457;-48
2022/03/16 09:56:05;;;;;;;9.03;1.70;;;;;;;6.53;100.00;101212.22;5012193;28;20878;-48
2022/03/16 09:58:32;;;;;;;0.20;0.10;;;;;;;6.50;100.00;101198.13;5013622;28;20793;-47
2022/03/16 10:00:58;;;;;;;0.20;0.10;;;;;;;6.87;100.00;101199.09;5010596;28;20488;-48
2022/03/16 10:03:29;;;;;;;0.20;0.10;;;;;;;7.10;100.00;101199.97;5002995;28;20453;-48
2022/03/16 10:05:57;;;;;;;0.20;0.20;;;;;;;6.99;100.00;101201.75;5013101;28;20476;-48
2022/03/16 10:08:32;;;;;;;4.70;1.23;;;;;;;6.90;100.00;101195.56;5006426;28;20450;-47
2022/03/16 10:14:14;;;;;;;0.20;0.10;;;;;;;7.24;100.00;101185.88;5013187;28;20452;-50
2022/03/16 10:19:49;;;;;;;0.63;0.60;;;;;;;7.24;100.00;101186.75;4994726;28;20475;-48
2022/03/16 10:22:26;;;;;;;0.20;0.10;;;;;;;7.34;100.00;101183.22;5012992;28;21011;-48
2022/03/16 10:25:04;;;;;;;2.10;2.10;;;;;;;7.53;100.00;101181.41;5013574;28;20483;-47
2022/03/16 10:27:38;;;;;;;0.20;0.20;;;;;;;7.56;100.00;101175.28;4988912;28;20456;-48
2022/03/16 10:30:07;;;;;;;0.27;0.17;;;;;;;7.62;100.00;101169.94;5012811;28;20539;-47
2022/03/16 10:32:40;;;;;;;0.30;0.10;;;;;;;7.78;100.00;101179.59;5012998;28;20456;-48
2022/03/16 10:35:07;;;;;;;0.87;0.77;;;;;;;7.85;100.00;101181.34;5011813;28;20444;-47
2022/03/16 10:37:36;;;;;;;0.20;0.10;;;;;;;8.17;100.00;101172.41;5013131;28;20476;-47
2022/03/16 10:40:17;;;;;;;0.20;0.20;;;;;;;8.24;100.00;101190.03;5012820;28;20496;-47
2022/03/16 10:48:23;;;;;;;0.40;0.37;;;;;;;8.38;100.00;101172.34;5002129;28;20456;-48
2022/03/16 10:50:56;;;;;;;0.20;0.10;;;;;;;8.50;100.00;101179.34;5012819;28;20482;-48
2022/03/16 10:53:28;;;;;;;0.67;0.67;;;;;;;8.47;100.00;101179.34;5012664;28;20452;-48
2022/03/16 10:55:57;;;;;;;0.30;0.27;;;;;;;8.39;100.00;101174.09;5012574;28;20444;-50
2022/03/16 10:58:24;;;;;;;0.23;0.20;;;;;;;8.44;100.00;101168.78;4987573;28;20870;-48
2022/03/16 11:00:52;;;;;;;0.30;0.27;;;;;;;8.60;100.00;101159.84;5011166;28;20542;-48
2022/03/16 11:03:22;;;;;;;0.50;0.50;;;;;;;8.40;100.00;101156.44;5001217;28;20531;-47
2022/03/16 11:05:49;;;;;;;0.23;0.20;;;;;;;8.49;100.00;101153.72;5012479;28;20449;-47
2022/03/16 11:08:17;;;;;;;0.30;0.20;;;;;;;8.57;100.00;101152.78;5013078;28;20506;-47
2022/03/16 11:10:43;;;;;;;0.30;0.20;;;;;;;8.60;100.00;101149.22;5012346;28;20534;-48
2022/03/16 11:13:29;;;;;;;0.20;0.10;;;;;;;8.89;100.00;101146.38;5016498;28;20912;-47
2022/03/16 11:15:59;;;;;;;0.30;0.20;;;;;;;8.74;100.00;101144.72;5016375;28;20445;-47
2022/03/16 11:18:26;;;;;;;1.30;1.03;;;;;;;8.83;100.00;101141.13;5012477;28;20499;-47
2022/03/16 11:21:04;;;;;;;0.30;0.20;;;;;;;9.03;100.00;101144.47;5015841;28;20499;-47
2022/03/16 11:27:02;;;;;;;0.30;0.20;;;;;;;9.29;100.00;101140.72;5016154;28;20452;-47
2022/03/16 11:29:47;;;;;;;2.87;1.07;;;;;;;9.22;100.00;101134.59;4997162;28;20472;-48
2022/03/16 11:32:16;;;;;;;0.30;0.20;;;;;;;9.17;100.00;101133.75;5016102;28;20496;-48
2022/03/16 11:34:47;;;;;;;0.30;0.20;;;;;;;9.35;100.00;101132.72;5016328;28;20448;-48
2022/03/16 11:37:14;;;;;;;0.30;0.20;;;;;;;9.68;100.00;101134.13;5015776;28;20483;-48
2022/03/16 11:39:47;;;;;;;0.30;0.10;;;;;;;9.51;100.00;101131.66;5015684;28;20508;-48
2022/03/16 11:42:18;;;;;;;0.30;0.20;;;;;;;9.57;100.00;101131.56;5016063;28;20922;-47